Time;durP1;ratioP1;P1;durP2;ratioP2;P2;SDS_P1;SDS_P2;PMS_P1;PMS_P2;Temp;Humidity;BMP_temperature;BMP_pressure;BME280_temperature;BME280_humidity;BME280_pressure;Samples;Min_cycle;Max_cycle;Signal;HPM_P1;HPM_P2
2022/10/06 00:01:08;;;;;;;0.00;0.00;;;16.60;99.90;;;;;;5033363;28;20461;-68
2022/10/06 00:03:38;;;;;;;0.00;0.00;;;16.60;99.90;;;;;;5032906;28;20992;-68
2022/10/06 00:06:07;;;;;;;0.00;0.00;;;16.60;99.90;;;;;;5033138;28;20445;-69
2022/10/06 00:08:37;;;;;;;0.00;0.00;;;16.60;99.90;;;;;;5032536;28;20877;-68
2022/10/06 00:11:06;;;;;;;0.00;0.00;;;16.50;99.90;;;;;;5033261;28;20538;-68
2022/10/06 00:13:35;;;;;;;0.00;0.00;;;16.60;99.90;;;;;;5032843;28;20514;-68
2022/10/06 00:16:09;;;;;;;0.00;0.00;;;16.50;99.90;;;;;;5032427;28;20461;-68
2022/10/06 00:18:39;;;;;;;0.00;0.00;;;16.50;99.90;;;;;;5033227;28;20538;-69
2022/10/06 00:21:06;;;;;;;0.00;0.00;;;16.50;99.90;;;;;;5036151;28;20514;-68
2022/10/06 00:23:34;;;;;;;0.00;0.00;;;16.50;99.90;;;;;;5043426;28;20940;-69
2022/10/06 00:26:02;;;;;;;0.00;0.00;;;16.50;99.90;;;;;;5052247;28;20479;-71
2022/10/06 00:28:30;;;;;;;0.00;0.00;;;16.50;99.90;;;;;;5034612;28;20458;-69
2022/10/06 00:31:01;;;;;;;0.00;0.00;;;16.50;99.90;;;;;;5032760;28;20490;-69
2022/10/06 00:33:29;;;;;;;0.00;0.00;;;16.50;99.90;;;;;;5035965;28;20444;-69
2022/10/06 00:35:59;;;;;;;0.00;0.00;;;16.50;99.90;;;;;;5045352;28;20475;-67
2022/10/06 00:38:27;;;;;;;0.00;0.00;;;16.40;99.90;;;;;;5041762;28;20453;-67
2022/10/06 00:40:56;;;;;;;0.00;0.00;;;16.40;99.90;;;;;;5050223;28;20472;-67
2022/10/06 00:43:43;;;;;;;0.00;0.00;;;16.30;99.90;;;;;;5038778;28;20991;-66
2022/10/06 00:46:16;;;;;;;0.00;0.00;;;16.30;99.90;;;;;;5044428;28;20998;-67
2022/10/06 00:48:47;;;;;;;0.00;0.00;;;16.30;99.90;;;;;;5040148;28;20443;-67
2022/10/06 00:51:17;;;;;;;0.00;0.00;;;16.20;99.90;;;;;;5041733;28;20493;-67
2022/10/06 00:53:45;;;;;;;0.00;0.00;;;16.30;99.90;;;;;;5041489;28;20516;-67
2022/10/06 00:56:13;;;;;;;0.00;0.00;;;16.30;99.90;;;;;;5056392;28;20444;-67
2022/10/06 00:58:41;;;;;;;0.00;0.00;;;16.20;99.90;;;;;;5047090;28;20498;-68
2022/10/06 01:01:11;;;;;;;0.00;0.00;;;16.10;99.90;;;;;;5038670;28;20469;-67
2022/10/06 01:03:42;;;;;;;0.00;0.00;;;16.10;99.90;;;;;;5046615;28;20535;-68
2022/10/06 01:06:10;;;;;;;0.00;0.00;;;16.10;99.90;;;;;;5038712;28;20456;-67
2022/10/06 01:08:39;;;;;;;0.00;0.00;;;16.00;99.90;;;;;;5046698;28;20471;-67
2022/10/06 01:11:11;;;;;;;0.00;0.00;;;16.00;99.90;;;;;;5046977;28;20480;-67
2022/10/06 01:13:42;;;;;;;0.00;0.00;;;16.00;99.90;;;;;;5042275;28;20440;-67
2022/10/06 01:16:16;;;;;;;0.00;0.00;;;16.00;99.90;;;;;;5047363;28;20474;-68
2022/10/06 01:18:46;;;;;;;0.00;0.00;;;16.00;99.90;;;;;;5037399;28;20452;-67
2022/10/06 01:21:21;;;;;;;0.00;0.00;;;15.90;99.90;;;;;;5056079;28;20866;-68
2022/10/06 01:23:51;;;;;;;0.00;0.00;;;15.80;99.90;;;;;;5055864;28;20432;-68
2022/10/06 01:26:23;;;;;;;0.00;0.00;;;15.60;99.90;;;;;;5035490;28;21005;-68
2022/10/06 01:28:51;;;;;;;0.00;0.00;;;15.50;99.90;;;;;;5035583;28;20444;-68
2022/10/06 01:31:19;;;;;;;0.00;0.00;;;15.40;99.90;;;;;;5035340;28;20899;-68
2022/10/06 01:33:51;;;;;;;0.00;0.00;;;15.30;99.90;;;;;;5040790;28;20436;-68
2022/10/06 01:36:19;;;;;;;0.00;0.00;;;15.30;99.90;;;;;;5055878;28;20440;-68
2022/10/06 01:38:47;;;;;;;0.00;0.00;;;15.20;99.90;;;;;;5058570;28;20811;-67
2022/10/06 01:41:16;;;;;;;0.00;0.00;;;15.20;99.90;;;;;;5072515;28;20492;-67
2022/10/06 01:43:44;;;;;;;0.00;0.00;;;15.10;99.90;;;;;;5048490;28;20479;-67
2022/10/06 01:46:12;;;;;;;0.00;0.00;;;15.00;99.90;;;;;;5040091;28;20514;-67
2022/10/06 01:48:39;;;;;;;0.00;0.00;;;15.00;99.90;;;;;;5046711;28;20451;-67
2022/10/06 01:51:08;;;;;;;0.00;0.00;;;14.90;99.90;;;;;;5043929;28;20539;-68
2022/10/06 01:53:35;;;;;;;0.00;0.00;;;14.80;99.90;;;;;;5034530;28;21007;-68
2022/10/06 01:56:03;;;;;;;0.00;0.00;;;14.80;99.90;;;;;;5036411;28;20491;-68
2022/10/06 01:58:33;;;;;;;0.00;0.00;;;14.70;99.90;;;;;;5055248;28;20467;-68
2022/10/06 02:01:04;;;;;;;0.00;0.00;;;14.60;99.90;;;;;;5055297;28;20829;-68
2022/10/06 02:03:33;;;;;;;0.00;0.00;;;14.50;99.90;;;;;;5054951;28;20486;-68
2022/10/06 02:06:01;;;;;;;0.00;0.00;;;14.50;99.90;;;;;;5055042;28;20449;-68
2022/10/06 02:08:29;;;;;;;0.00;0.00;;;14.40;99.90;;;;;;5054579;28;20440;-68
2022/10/06 02:10:57;;;;;;;0.00;0.00;;;14.40;99.90;;;;;;5054596;28;20472;-68
2022/10/06 02:13:26;;;;;;;0.00;0.00;;;14.30;99.90;;;;;;5054712;28;20447;-69
2022/10/06 02:18:55;;;;;;;0.00;0.00;;;14.30;99.90;;;;;;5907762;22;20468;-67
2022/10/06 02:21:23;;;;;;;0.00;0.00;;;14.30;99.90;;;;;;5055790;28;20533;-67
2022/10/06 02:23:51;;;;;;;0.00;0.00;;;14.20;99.90;;;;;;5054650;28;20436;-67
2022/10/06 02:26:19;;;;;;;0.00;0.00;;;14.20;99.90;;;;;;5055027;28;20440;-66
2022/10/06 02:28:48;;;;;;;0.00;0.00;;;14.10;99.90;;;;;;5055039;28;20432;-67
2022/10/06 02:31:16;;;;;;;0.00;0.00;;;14.20;99.90;;;;;;5050236;28;20484;-66
2022/10/06 02:33:44;;;;;;;0.00;0.00;;;14.20;99.90;;;;;;5036067;28;20476;-67
2022/10/06 02:36:15;;;;;;;0.00;0.00;;;14.30;99.90;;;;;;5052911;28;21014;-68
2022/10/06 02:38:43;;;;;;;0.00;0.00;;;14.40;99.90;;;;;;5054242;28;20448;-68
2022/10/06 02:41:11;;;;;;;0.00;0.00;;;14.50;99.90;;;;;;5054716;28;20453;-68
2022/10/06 02:43:39;;;;;;;0.00;0.00;;;14.60;99.90;;;;;;5049731;28;20473;-68
2022/10/06 02:46:10;;;;;;;0.00;0.00;;;14.70;99.90;;;;;;5034806;28;20449;-68
2022/10/06 02:48:39;;;;;;;0.00;0.00;;;14.70;99.90;;;;;;5053865;28;20522;-68
2022/10/06 02:51:10;;;;;;;0.00;0.00;;;14.70;99.90;;;;;;5046614;28;21031;-69
2022/10/06 02:53:39;;;;;;;0.00;0.00;;;14.70;99.90;;;;;;5037939;28;20444;-69
2022/10/06 02:56:09;;;;;;;0.00;0.00;;;14.70;99.90;;;;;;5054388;28;20482;-69
2022/10/06 02:58:39;;;;;;;0.00;0.00;;;14.80;99.90;;;;;;5043454;28;20445;-68
2022/10/06 03:01:09;;;;;;;0.00;0.00;;;14.80;99.90;;;;;;5034340;28;21027;-68
2022/10/06 03:03:37;;;;;;;0.00;0.00;;;14.80;99.90;;;;;;5033844;28;21037;-68
2022/10/06 03:06:20;;;;;;;0.00;0.00;;;14.70;99.90;;;;;;5036809;28;20942;-69
2022/10/06 03:08:50;;;;;;;0.00;0.00;;;14.70;99.90;;;;;;5042242;28;20444;-69
2022/10/06 03:11:19;;;;;;;0.00;0.00;;;14.70;99.90;;;;;;5053403;28;20522;-69
2022/10/06 03:13:48;;;;;;;0.00;0.00;;;14.60;99.90;;;;;;5048706;28;20833;-69
2022/10/06 03:16:18;;;;;;;0.00;0.00;;;14.50;99.90;;;;;;5033702;28;20442;-69
2022/10/06 03:18:48;;;;;;;0.00;0.00;;;14.40;99.90;;;;;;5033917;28;20879;-69
2022/10/06 03:21:16;;;;;;;0.00;0.00;;;14.40;99.90;;;;;;5033346;28;20492;-69
2022/10/06 03:23:45;;;;;;;0.00;0.00;;;14.30;99.90;;;;;;5033133;28;20463;-69
2022/10/06 03:26:16;;;;;;;0.00;0.00;;;14.30;99.90;;;;;;5048776;28;20453;-69
2022/10/06 03:28:44;;;;;;;0.00;0.00;;;14.20;99.90;;;;;;5053151;28;21038;-69
2022/10/06 03:31:13;;;;;;;0.00;0.00;;;14.20;99.90;;;;;;5053042;28;20460;-69
2022/10/06 03:33:41;;;;;;;0.00;0.00;;;14.20;99.90;;;;;;5053295;28;20448;-69
2022/10/06 03:36:12;;;;;;;0.00;0.00;;;14.20;99.90;;;;;;5053041;28;20459;-69
2022/10/06 03:38:40;;;;;;;0.00;0.00;;;14.10;99.90;;;;;;5052794;28;20490;-68
2022/10/06 03:41:10;;;;;;;0.00;0.00;;;14.10;99.90;;;;;;5053171;28;20906;-68
2022/10/06 03:43:40;;;;;;;0.00;0.00;;;14.00;99.90;;;;;;5053133;28;20441;-69
2022/10/06 03:46:08;;;;;;;0.00;0.00;;;14.00;99.90;;;;;;5039001;28;20923;-68
2022/10/06 03:48:36;;;;;;;0.00;0.00;;;13.90;99.90;;;;;;5033076;28;20437;-68
2022/10/06 03:51:06;;;;;;;0.00;0.00;;;13.90;99.90;;;;;;5034708;28;20465;-69
2022/10/06 03:53:35;;;;;;;0.00;0.00;;;13.80;99.90;;;;;;5049287;28;20472;-70
2022/10/06 03:56:06;;;;;;;0.00;0.00;;;13.80;99.90;;;;;;5046551;28;20476;-68
2022/10/06 03:58:35;;;;;;;0.00;0.00;;;13.70;99.90;;;;;;5051303;28;20436;-67
2022/10/06 04:01:08;;;;;;;0.00;0.00;;;13.70;99.90;;;;;;5040069;28;21033;-68
2022/10/06 04:03:36;;;;;;;0.00;0.00;;;13.60;99.90;;;;;;5052901;28;20429;-69
2022/10/06 04:06:06;;;;;;;0.00;0.00;;;13.50;99.90;;;;;;5052683;28;20493;-68
2022/10/06 04:08:35;;;;;;;0.00;0.00;;;13.50;99.90;;;;;;5052481;28;20443;-67
2022/10/06 04:11:07;;;;;;;0.00;0.00;;;13.40;99.90;;;;;;5052923;28;20832;-74
2022/10/06 04:13:35;;;;;;;0.00;0.00;;;13.40;99.90;;;;;;5052434;28;20545;-74
2022/10/06 04:16:11;;;;;;;0.00;0.00;;;13.40;99.90;;;;;;5052020;28;20440;-74
2022/10/06 04:18:39;;;;;;;0.00;0.00;;;13.30;99.90;;;;;;5044469;28;21010;-74
2022/10/06 04:21:07;;;;;;;0.00;0.00;;;13.30;99.90;;;;;;5032833;28;20481;-74
2022/10/06 04:23:36;;;;;;;0.00;0.00;;;13.30;99.90;;;;;;5033630;28;20857;-74
2022/10/06 04:26:08;;;;;;;0.00;0.00;;;13.30;99.90;;;;;;5032832;28;20940;-74
2022/10/06 04:28:37;;;;;;;0.00;0.00;;;13.30;99.90;;;;;;5036004;28;20437;-74
2022/10/06 04:31:06;;;;;;;0.00;0.00;;;13.30;99.90;;;;;;5049409;28;20463;-74
2022/10/06 04:33:36;;;;;;;0.00;0.00;;;13.30;99.90;;;;;;5043911;28;20568;-74
2022/10/06 04:36:05;;;;;;;0.00;0.00;;;13.20;99.90;;;;;;5046372;28;20437;-74
2022/10/06 04:38:34;;;;;;;0.00;0.00;;;13.20;99.90;;;;;;5044801;28;20784;-74
2022/10/06 04:41:07;;;;;;;0.00;0.00;;;13.20;99.90;;;;;;5041241;28;20951;-74
2022/10/06 04:43:34;;;;;;;0.00;0.00;;;13.20;99.90;;;;;;5041057;28;20921;-74
2022/10/06 04:46:03;;;;;;;0.00;0.00;;;13.20;99.90;;;;;;5047346;28;20440;-74
2022/10/06 04:48:53;;;;;;;0.00;0.00;;;13.20;99.90;;;;;;5043080;28;20499;-74
2022/10/06 04:51:23;;;;;;;0.00;0.00;;;13.10;99.90;;;;;;5044771;28;20522;-75
2022/10/06 04:53:51;;;;;;;0.00;0.00;;;13.10;99.90;;;;;;5044263;28;20553;-74
2022/10/06 04:56:22;;;;;;;0.00;0.00;;;13.10;99.90;;;;;;5042938;28;20945;-74
2022/10/06 04:58:58;;;;;;;0.00;0.00;;;13.10;99.90;;;;;;5039319;28;20445;-74
2022/10/06 05:01:29;;;;;;;0.00;0.00;;;13.10;99.90;;;;;;5043215;28;20459;-76
2022/10/06 05:04:00;;;;;;;0.00;0.00;;;13.00;99.90;;;;;;5044753;28;20473;-74
2022/10/06 05:06:30;;;;;;;0.00;0.00;;;13.00;99.90;;;;;;5051762;28;20502;-74
2022/10/06 05:09:00;;;;;;;0.00;0.00;;;13.00;99.90;;;;;;5038137;28;20991;-73
2022/10/06 05:11:30;;;;;;;0.00;0.00;;;13.00;99.90;;;;;;5036154;28;20520;-79
2022/10/06 05:13:58;;;;;;;0.00;0.00;;;13.00;99.90;;;;;;5036246;28;20471;-73
2022/10/06 05:16:28;;;;;;;0.00;0.00;;;12.90;99.90;;;;;;5049863;28;20519;-78
2022/10/06 05:18:58;;;;;;;0.00;0.00;;;12.90;99.90;;;;;;5047393;28;20794;-78
2022/10/06 05:21:27;;;;;;;0.00;0.00;;;12.90;99.90;;;;;;5038097;28;20509;-78
2022/10/06 05:23:56;;;;;;;0.00;0.00;;;12.90;99.90;;;;;;5046133;28;20456;-78
2022/10/06 05:26:26;;;;;;;0.00;0.00;;;12.80;99.90;;;;;;5051170;28;20908;-77
2022/10/06 05:28:54;;;;;;;0.00;0.00;;;12.80;99.90;;;;;;5048615;28;20483;-77
2022/10/06 05:31:25;;;;;;;0.00;0.00;;;12.80;99.90;;;;;;5050980;28;20459;-79
2022/10/06 05:33:53;;;;;;;0.00;0.00;;;12.90;99.90;;;;;;5042836;28;20476;-68
2022/10/06 05:36:24;;;;;;;0.00;0.00;;;12.90;99.90;;;;;;5040768;28;20824;-67
2022/10/06 05:38:53;;;;;;;0.00;0.00;;;12.80;99.90;;;;;;5046977;28;20479;-68
2022/10/06 05:41:23;;;;;;;0.00;0.00;;;12.80;99.90;;;;;;5050868;28;20559;-68
2022/10/06 05:43:51;;;;;;;0.00;0.00;;;12.80;99.90;;;;;;5040242;28;20457;-68
2022/10/06 05:46:23;;;;;;;0.00;0.00;;;12.80;99.90;;;;;;5055356;28;20436;-68
2022/10/06 05:48:54;;;;;;;0.00;0.00;;;12.70;99.90;;;;;;5053778;28;20797;-66
2022/10/06 05:51:25;;;;;;;0.00;0.00;;;12.70;99.90;;;;;;5035224;28;20564;-67
2022/10/06 05:53:57;;;;;;;0.00;0.00;;;12.70;99.90;;;;;;5034880;28;20461;-68
2022/10/06 05:56:26;;;;;;;0.00;0.00;;;12.70;99.90;;;;;;5035451;28;20441;-68
2022/10/06 05:58:55;;;;;;;0.00;0.00;;;12.70;99.90;;;;;;5042836;28;20463;-68
2022/10/06 06:01:25;;;;;;;0.00;0.00;;;12.70;99.90;;;;;;5055277;28;20967;-68
2022/10/06 06:03:55;;;;;;;0.00;0.00;;;12.80;99.90;;;;;;5044285;28;20919;-67
2022/10/06 06:06:26;;;;;;;0.00;0.00;;;12.80;99.90;;;;;;5038328;28;20520;-70
2022/10/06 06:08:56;;;;;;;0.00;0.00;;;12.80;99.90;;;;;;5041055;28;20856;-66
2022/10/06 06:11:26;;;;;;;0.00;0.00;;;12.70;99.90;;;;;;5051042;28;20983;-66
2022/10/06 06:13:56;;;;;;;0.00;0.00;;;12.80;99.90;;;;;;5041243;28;20483;-66
2022/10/06 06:16:24;;;;;;;0.00;0.00;;;12.80;99.90;;;;;;5041244;28;20503;-67
2022/10/06 06:18:52;;;;;;;0.00;0.00;;;12.80;99.90;;;;;;5040648;28;20463;-66
2022/10/06 06:21:20;;;;;;;0.00;0.00;;;12.80;99.90;;;;;;5045383;28;20863;-67
2022/10/06 06:23:49;;;;;;;0.00;0.00;;;12.80;99.90;;;;;;5037272;28;20495;-66
2022/10/06 06:26:19;;;;;;;0.00;0.00;;;12.80;99.90;;;;;;5037066;28;20457;-66
2022/10/06 06:28:47;;;;;;;0.00;0.00;;;12.80;99.90;;;;;;5036984;28;20456;-65
2022/10/06 06:31:18;;;;;;;0.00;0.00;;;12.80;99.90;;;;;;5043481;28;20837;-67
2022/10/06 06:33:48;;;;;;;0.00;0.00;;;12.80;99.90;;;;;;5040839;28;20798;-67
2022/10/06 06:36:17;;;;;;;0.00;0.00;;;12.80;99.90;;;;;;5040480;28;20460;-66
2022/10/06 06:38:51;;;;;;;0.00;0.00;;;12.80;99.90;;;;;;5044691;28;20452;-67
2022/10/06 06:41:21;;;;;;;0.00;0.00;;;12.80;99.90;;;;;;5051979;28;20534;-67
2022/10/06 06:43:50;;;;;;;0.00;0.00;;;12.80;99.90;;;;;;5035333;28;20433;-66
2022/10/06 06:46:19;;;;;;;0.00;0.00;;;12.80;99.90;;;;;;5050748;28;20455;-66
2022/10/06 06:48:48;;;;;;;0.00;0.00;;;12.80;99.90;;;;;;5046032;28;20959;-66
2022/10/06 06:51:16;;;;;;;0.00;0.00;;;12.80;99.90;;;;;;5041344;28;20512;-65
2022/10/06 06:53:45;;;;;;;0.00;0.00;;;12.90;99.90;;;;;;5048589;28;20468;-66
2022/10/06 06:56:15;;;;;;;0.00;0.00;;;12.90;99.90;;;;;;5046370;28;20452;-68
2022/10/06 06:58:46;;;;;;;0.00;0.00;;;12.90;99.90;;;;;;5043047;28;20801;-66
2022/10/06 07:01:15;;;;;;;0.00;0.00;;;13.00;99.90;;;;;;5037669;28;20465;-66
2022/10/06 07:03:45;;;;;;;0.00;0.00;;;13.00;99.90;;;;;;5038631;28;20444;-69
2022/10/06 07:06:26;;;;;;;0.00;0.00;;;13.00;99.90;;;;;;5048176;28;20455;-66
2022/10/06 07:08:56;;;;;;;0.00;0.00;;;13.10;99.90;;;;;;5044020;28;20456;-66
2022/10/06 07:11:27;;;;;;;0.00;0.00;;;13.00;99.90;;;;;;5037001;28;20472;-66
2022/10/06 07:13:57;;;;;;;0.00;0.00;;;13.10;99.90;;;;;;5046095;28;20498;-66
2022/10/06 07:27:32;;;;;;;0.00;0.00;;;13.20;99.90;;;;;;5051080;28;20501;-68
2022/10/06 07:29:59;;;;;;;0.00;0.00;;;13.30;99.90;;;;;;5051887;28;20460;-68
2022/10/06 07:32:29;;;;;;;0.00;0.00;;;13.30;99.90;;;;;;5052490;28;20436;-68
2022/10/06 07:34:57;;;;;;;0.00;0.00;;;13.40;99.90;;;;;;5053059;28;20480;-68
2022/10/06 07:37:27;;;;;;;0.00;0.00;;;13.40;99.90;;;;;;5052379;28;20502;-68
2022/10/06 07:39:55;;;;;;;0.00;0.00;;;13.50;99.90;;;;;;5051914;28;21024;-68
2022/10/06 07:42:23;;;;;;;0.00;0.00;;;13.60;99.90;;;;;;5053161;28;20490;-68
2022/10/06 07:47:34;;;;;;;0.00;0.00;;;13.60;99.90;;;;;;5052614;28;20440;-67
2022/10/06 07:50:02;;;;;;;0.00;0.00;;;13.70;99.90;;;;;;5051727;28;20460;-68
2022/10/06 07:52:29;;;;;;;0.00;0.00;;;13.70;99.90;;;;;;5053355;28;20501;-67
2022/10/06 07:54:58;;;;;;;0.00;0.00;;;13.80;99.90;;;;;;5052734;28;20987;-68
2022/10/06 07:57:33;;;;;;;0.00;0.00;;;13.80;99.90;;;;;;5052771;28;20999;-68
2022/10/06 08:00:06;;;;;;;0.00;0.00;;;13.80;99.90;;;;;;5052786;28;20574;-67
2022/10/06 08:02:33;;;;;;;0.00;0.00;;;13.90;99.90;;;;;;5052811;28;20436;-68
2022/10/06 08:05:03;;;;;;;0.00;0.00;;;13.90;99.90;;;;;;5052851;28;20494;-68
2022/10/06 08:07:31;;;;;;;0.00;0.00;;;13.90;99.90;;;;;;5053025;28;20444;-68
2022/10/06 08:09:59;;;;;;;0.00;0.00;;;13.90;99.90;;;;;;5052425;28;20459;-68
2022/10/06 08:12:32;;;;;;;0.00;0.00;;;14.00;99.90;;;;;;5052573;28;20436;-68
2022/10/06 08:15:02;;;;;;;0.00;0.00;;;14.00;99.90;;;;;;5055577;28;20476;-68
2022/10/06 08:17:35;;;;;;;0.00;0.00;;;14.00;99.90;;;;;;5058071;28;20432;-68
2022/10/06 08:20:03;;;;;;;0.00;0.00;;;14.10;99.90;;;;;;5052454;28;20476;-68
2022/10/06 08:22:32;;;;;;;0.00;0.00;;;14.10;99.90;;;;;;5052502;28;20462;-68
2022/10/06 08:24:59;;;;;;;0.00;0.00;;;14.10;99.90;;;;;;5052582;28;20440;-68
2022/10/06 08:27:34;;;;;;;0.00;0.00;;;14.20;99.90;;;;;;5052506;28;20436;-69
2022/10/06 08:30:04;;;;;;;0.00;0.00;;;14.30;99.90;;;;;;5051882;28;20490;-68
2022/10/06 08:32:31;;;;;;;0.00;0.00;;;14.40;99.90;;;;;;5052475;28;20818;-68
2022/10/06 08:34:59;;;;;;;0.00;0.00;;;14.30;99.90;;;;;;5052365;28;21048;-68
2022/10/06 08:37:27;;;;;;;0.00;0.00;;;14.40;99.90;;;;;;5052480;28;20436;-68
2022/10/06 08:39:56;;;;;;;0.00;0.00;;;14.50;99.90;;;;;;5052181;28;20464;-68
2022/10/06 08:42:33;;;;;;;0.00;0.00;;;14.50;99.90;;;;;;5052074;28;20827;-68
2022/10/06 08:45:05;;;;;;;0.00;0.00;;;14.50;99.90;;;;;;5052923;28;20436;-68
2022/10/06 08:47:35;;;;;;;0.00;0.00;;;14.50;99.90;;;;;;5052375;28;21005;-68
2022/10/06 08:50:09;;;;;;;0.00;0.00;;;14.50;99.90;;;;;;5052044;28;20456;-68
2022/10/06 08:52:47;;;;;;;0.00;0.00;;;14.60;99.90;;;;;;5052038;28;20514;-68
2022/10/06 08:55:30;;;;;;;0.00;0.00;;;14.60;99.90;;;;;;5052032;28;20549;-68
2022/10/06 08:58:19;;;;;;;0.00;0.00;;;14.60;99.90;;;;;;5052389;28;20510;-68
2022/10/06 09:00:49;;;;;;;0.00;0.00;;;14.70;99.90;;;;;;5052168;28;20514;-68
2022/10/06 09:03:22;;;;;;;0.00;0.00;;;14.70;99.90;;;;;;5055656;28;20803;-68
2022/10/06 09:05:52;;;;;;;0.00;0.00;;;14.80;99.90;;;;;;5056006;28;20489;-68
2022/10/06 09:08:33;;;;;;;0.00;0.00;;;14.90;99.90;;;;;;5056173;28;20440;-68
2022/10/06 09:11:16;;;;;;;0.00;0.00;;;14.90;99.90;;;;;;5055999;28;20455;-68
2022/10/06 09:13:52;;;;;;;0.00;0.00;;;15.00;99.90;;;;;;5055744;28;20853;-68
2022/10/06 09:16:27;;;;;;;0.00;0.00;;;15.00;99.90;;;;;;5056045;28;20502;-68
2022/10/06 09:19:01;;;;;;;0.00;0.00;;;15.00;99.90;;;;;;5055614;28;20475;-68
2022/10/06 09:21:40;;;;;;;0.00;0.00;;;15.10;99.90;;;;;;5055597;28;20892;-68
2022/10/06 09:24:13;;;;;;;0.00;0.00;;;15.20;99.90;;;;;;5055361;28;20505;-68
2022/10/06 09:26:44;;;;;;;0.00;0.00;;;15.30;99.90;;;;;;5055703;28;20440;-68
2022/10/06 09:29:13;;;;;;;0.00;0.00;;;15.30;99.90;;;;;;5055604;28;20831;-68
2022/10/06 09:31:49;;;;;;;0.00;0.00;;;15.30;99.90;;;;;;5055526;28;20468;-68
2022/10/06 09:34:23;;;;;;;0.00;0.00;;;15.40;99.90;;;;;;5055536;28;20531;-68
2022/10/06 09:36:59;;;;;;;0.00;0.00;;;15.50;99.90;;;;;;5055152;28;20486;-68
2022/10/06 09:39:34;;;;;;;0.00;0.00;;;15.60;99.90;;;;;;5055163;28;20490;-68
2022/10/06 09:42:06;;;;;;;0.00;0.00;;;15.60;99.90;;;;;;5055379;28;20436;-68
2022/10/06 09:44:43;;;;;;;0.00;0.00;;;15.70;99.90;;;;;;5055213;28;20428;-68
2022/10/06 09:47:34;;;;;;;0.00;0.00;;;15.70;99.90;;;;;;5055173;28;20942;-68
2022/10/06 09:50:11;;;;;;;0.00;0.00;;;15.70;99.90;;;;;;5055083;28;20835;-68
2022/10/06 09:52:39;;;;;;;0.00;0.00;;;15.80;99.90;;;;;;5055327;28;20429;-68
2022/10/06 09:55:12;;;;;;;0.00;0.00;;;15.90;99.90;;;;;;5055100;28;20479;-68
2022/10/06 09:57:48;;;;;;;0.00;0.00;;;16.00;99.90;;;;;;5055178;28;20445;-68
2022/10/06 10:00:26;;;;;;;0.00;0.00;;;16.10;99.90;;;;;;5055200;28;20460;-68
2022/10/06 10:02:58;;;;;;;0.00;0.00;;;16.20;99.90;;;;;;5055051;28;20440;-68
2022/10/06 10:05:29;;;;;;;0.00;0.00;;;16.20;99.90;;;;;;5055001;28;20433;-68
2022/10/06 10:08:07;;;;;;;0.00;0.00;;;16.20;99.90;;;;;;5054494;28;20444;-68
2022/10/06 10:10:37;;;;;;;0.00;0.00;;;16.20;99.90;;;;;;5055145;28;20472;-68
2022/10/06 10:13:18;;;;;;;0.00;0.00;;;16.30;99.90;;;;;;5053873;28;20440;-68
2022/10/06 10:15:53;;;;;;;0.00;0.00;;;16.30;99.90;;;;;;5054426;28;20818;-68
2022/10/06 10:18:27;;;;;;;0.00;0.00;;;16.40;99.90;;;;;;5052334;28;20482;-68
2022/10/06 10:20:57;;;;;;;0.00;0.00;;;16.40;99.90;;;;;;5044030;28;20537;-68
2022/10/06 10:23:29;;;;;;;0.00;0.00;;;16.40;99.90;;;;;;5040228;28;20448;-68
2022/10/06 10:26:17;;;;;;;0.00;0.00;;;16.30;99.90;;;;;;5039786;28;20441;-68
2022/10/06 10:29:06;;;;;;;0.00;0.00;;;16.40;99.90;;;;;;5047347;28;20441;-68
2022/10/06 10:31:46;;;;;;;0.00;0.00;;;16.50;99.90;;;;;;5049447;28;20457;-68
2022/10/06 10:34:31;;;;;;;0.00;0.00;;;16.50;99.90;;;;;;5038915;28;20456;-68
2022/10/06 10:37:05;;;;;;;0.00;0.00;;;16.50;99.90;;;;;;5034190;28;20485;-68
2022/10/06 10:39:37;;;;;;;0.00;0.00;;;16.40;99.90;;;;;;5047411;28;20505;-67
2022/10/06 10:42:11;;;;;;;0.00;0.00;;;16.40;99.90;;;;;;5052729;28;20502;-67
2022/10/06 10:44:45;;;;;;;0.00;0.00;;;16.50;99.90;;;;;;5052841;28;20440;-67
2022/10/06 10:47:17;;;;;;;0.00;0.00;;;16.50;99.90;;;;;;5043211;28;20445;-67
2022/10/06 10:49:57;;;;;;;0.00;0.00;;;16.60;99.90;;;;;;5033767;28;20468;-67
2022/10/06 10:52:29;;;;;;;0.00;0.00;;;16.70;99.90;;;;;;5033267;28;20511;-67
2022/10/06 10:55:05;;;;;;;0.00;0.00;;;16.70;99.90;;;;;;5047946;28;20451;-68
2022/10/06 10:57:37;;;;;;;0.00;0.00;;;16.90;99.90;;;;;;5053836;28;20437;-67
2022/10/06 11:00:07;;;;;;;0.00;0.00;;;16.80;99.90;;;;;;5053500;28;20460;-67
2022/10/06 11:02:37;;;;;;;0.00;0.00;;;16.80;99.90;;;;;;5054053;28;20436;-67
2022/10/06 11:05:15;;;;;;;0.00;0.00;;;16.70;99.90;;;;;;5045900;28;20458;-67
2022/10/06 11:07:51;;;;;;;0.00;0.00;;;16.70;99.90;;;;;;5034049;28;20498;-66
2022/10/06 11:10:21;;;;;;;0.00;0.00;;;16.60;99.90;;;;;;5041674;28;20525;-67
2022/10/06 11:13:14;;;;;;;0.00;0.00;;;16.50;99.90;;;;;;5055560;28;20808;-66
2022/10/06 11:15:56;;;;;;;0.00;0.00;;;16.50;99.90;;;;;;5054445;28;20476;-66
2022/10/06 11:18:40;;;;;;;0.00;0.00;;;16.40;99.90;;;;;;5036910;28;20659;-68
2022/10/06 11:21:13;;;;;;;0.00;0.00;;;16.40;99.90;;;;;;5033535;28;20480;-66
2022/10/06 11:23:49;;;;;;;0.00;0.00;;;16.30;99.90;;;;;;5034802;28;20453;-66
2022/10/06 11:26:34;;;;;;;0.00;0.00;;;16.30;99.90;;;;;;5042287;28;20436;-66
2022/10/06 11:29:11;;;;;;;0.00;0.00;;;16.40;99.90;;;;;;5040510;28;20464;-66
2022/10/06 11:31:45;;;;;;;0.00;0.00;;;16.40;99.90;;;;;;5041609;28;20471;-66
2022/10/06 11:34:14;;;;;;;0.00;0.00;;;16.50;99.90;;;;;;5049168;28;21574;-67
2022/10/06 11:36:48;;;;;;;0.00;0.00;;;16.50;99.90;;;;;;5039301;28;20469;-66
2022/10/06 11:39:23;;;;;;;0.00;0.00;;;16.60;99.90;;;;;;5043381;28;20448;-66
2022/10/06 11:41:58;;;;;;;0.00;0.00;;;16.80;99.90;;;;;;5042322;28;20435;-66
2022/10/06 11:44:33;;;;;;;0.00;0.00;;;16.90;99.90;;;;;;5041092;28;20508;-66
2022/10/06 11:47:06;;;;;;;0.00;0.00;;;17.00;99.90;;;;;;5042301;28;20421;-66
2022/10/06 11:49:50;;;;;;;0.00;0.00;;;17.30;99.90;;;;;;5044096;28;20461;-66
2022/10/06 11:52:45;;;;;;;0.00;0.00;;;17.50;99.90;;;;;;5042787;28;20439;-66
2022/10/06 11:55:20;;;;;;;0.00;0.00;;;17.70;99.90;;;;;;5052888;28;20433;-66
2022/10/06 11:58:13;;;;;;;0.00;0.00;;;17.80;99.90;;;;;;5052856;28;20433;-66
2022/10/06 12:01:01;;;;;;;0.00;0.00;;;17.80;99.90;;;;;;5035945;28;20565;-66
2022/10/06 12:04:04;;;;;;;0.00;0.00;;;17.70;99.90;;;;;;5033005;28;20529;-67
2022/10/06 12:07:01;;;;;;;0.00;0.00;;;17.70;99.90;;;;;;5032734;28;20443;-66
2022/10/06 12:10:14;;;;;;;0.00;0.00;;;17.70;99.90;;;;;;5049450;28;20456;-66
2022/10/06 12:12:53;;;;;;;0.00;0.00;;;17.80;99.90;;;;;;5043817;28;20462;-66
2022/10/06 12:16:10;;;;;;;0.00;0.00;;;17.70;99.90;;;;;;5032829;28;20431;-66
2022/10/06 12:19:10;;;;;;;0.00;0.00;;;17.60;99.90;;;;;;5032347;28;20529;-66
2022/10/06 12:21:46;;;;;;;0.00;0.00;;;17.40;99.90;;;;;;5032754;28;20466;-66
2022/10/06 12:24:37;;;;;;;0.00;0.00;;;17.30;99.90;;;;;;5032872;28;20963;-66
2022/10/06 12:27:26;;;;;;;0.00;0.00;;;17.40;99.90;;;;;;5040582;28;20488;-66
2022/10/06 12:30:01;;;;;;;0.00;0.00;;;17.40;99.90;;;;;;5042723;28;20472;-66
2022/10/06 12:32:45;;;;;;;0.00;0.00;;;17.30;99.90;;;;;;5043220;28;20535;-66
2022/10/06 12:35:24;;;;;;;0.00;0.00;;;17.20;99.90;;;;;;5041214;28;20945;-66
2022/10/06 12:37:53;;;;;;;0.00;0.00;;;17.00;99.90;;;;;;5046100;28;20480;-66
2022/10/06 12:40:51;;;;;;;0.00;0.00;;;16.80;99.90;;;;;;5048607;28;20480;-66
2022/10/06 12:43:53;;;;;;;0.00;0.00;;;16.70;99.90;;;;;;5047727;28;20442;-66
2022/10/06 12:46:30;;;;;;;0.00;0.00;;;16.60;99.90;;;;;;5046650;28;20887;-66
2022/10/06 12:49:25;;;;;;;0.00;0.00;;;16.60;99.90;;;;;;5046255;28;20452;-66
2022/10/06 12:51:53;;;;;;;0.00;0.00;;;16.50;99.90;;;;;;5045863;28;20539;-66
2022/10/06 12:54:33;;;;;;;0.00;0.00;;;16.50;99.90;;;;;;5048536;28;20459;-70
2022/10/06 12:57:16;;;;;;;0.00;0.00;;;16.60;99.90;;;;;;5043961;28;20474;-67
2022/10/06 12:59:45;;;;;;;0.00;0.00;;;16.70;99.90;;;;;;5048992;28;20970;-67
2022/10/06 13:02:18;;;;;;;0.00;0.00;;;16.80;99.90;;;;;;5045592;28;20513;-67
2022/10/06 13:04:51;;;;;;;0.00;0.00;;;16.80;99.90;;;;;;5047422;28;20436;-67
2022/10/06 13:07:21;;;;;;;0.00;0.00;;;16.90;99.90;;;;;;5047198;28;20803;-67
2022/10/06 13:09:52;;;;;;;0.00;0.00;;;16.90;99.90;;;;;;5046613;28;20455;-67
2022/10/06 13:12:26;;;;;;;0.00;0.00;;;17.00;99.90;;;;;;5048397;28;20512;-67
2022/10/06 13:15:26;;;;;;;0.00;0.00;;;17.00;99.90;;;;;;5046758;28;20450;-67
2022/10/06 13:17:58;;;;;;;0.00;0.00;;;17.10;99.90;;;;;;5013153;28;20571;-67
2022/10/06 13:20:34;;;;;;;0.00;0.00;;;17.20;99.90;;;;;;5037972;28;20462;-67
2022/10/06 13:23:05;;;;;;;0.00;0.00;;;17.20;99.90;;;;;;5045743;28;20430;-68
2022/10/06 13:25:44;;;;;;;0.00;0.00;;;17.40;99.90;;;;;;5045183;28;20511;-67
2022/10/06 13:28:21;;;;;;;0.00;0.00;;;17.40;99.90;;;;;;5044842;28;20780;-68
2022/10/06 13:30:51;;;;;;;0.00;0.00;;;17.50;99.90;;;;;;5046966;28;20549;-67
2022/10/06 13:33:22;;;;;;;0.00;0.00;;;17.50;99.90;;;;;;5044614;28;20437;-67